HEGNHEMA

Guest
Details From HEGN - HURGHADA INTL
To HEMA - MARSA ALAM INTL
Flight Number -
Tags generated
Created
Modified
Stats Distance 106 nm / 197 km
Max Altitude 300 ft / 91 m
Waypoints 3
Social Downloads 1
Likes 0
Share VATSIM

Download

Looking for another format? Having issues loading an existing format? Contact us
Advertisement - Login to hide

Notes

Basic altitude profile: - Ascent Rate: 2500ft/min - Ascent Speed: 250kts - Cruise Altitude: 5000ft - Cruise Speed: 420kts - Descent Rate: 1500ft/min - Descent Speed: 250kts Options: - Use NATs: yes - Use PACOTS: yes - Use low airways: yes - Use high airways: yes

Route

HEGN MAK HEMA

ID Type Via Altitude Latitude Longitude Leg Dist Tot Dist Heading (true) Name
O HEGN APT - 0 ft / 0 m 27.17831˚ 33.79940˚ - 0 nm - HURGHADA INTL
MAK VOR - 300 ft / 91 m 25.58278˚ 34.56556˚ 104 nm 104 nm 157° / 157° MARSA ALAM VOR-DME
O HEMA APT - 0 ft / 0 m 25.55711˚ 34.58371˚ 1 nm 106 nm 147° / 147° MARSA ALAM INTL

Altitude Profile

Advertisement - Login to hide

HEGN

Details ICAO HEGN (HRG)
Name HURGHADA INTL
Region Egypt
Timezone Africa/Cairo (UTC+2.0)
Stats Elevation 52 ft / 16 m (AMSL)
Location 27.178308° 33.799397°
Runways 1
Magnetic Variation 4.211° E

METAR

HEGN 121400Z 00000KT CAVOK 25/15 Q1017 NOSIG

Decode

TAF

Not found

Departure Runways

ID Width Length Bearing (true) Bearing (mag) Surface Threshold Offset Overrun Length
16 148 ft / 45 m 13,169 ft / 4,014 m 165.29° 161.08° Asphalt 985 ft / 300 m 0 ft / 0 m
34 148 ft / 45 m 13,169 ft / 4,014 m 345.29° 341.08° Asphalt 0 ft / 0 m 200 ft / 61 m

HEMA

Details ICAO HEMA (RMF)
Name MARSA ALAM INTL
Region Egypt
Timezone Africa/Cairo (UTC+2.0)
Stats Elevation 251 ft / 77 m (AMSL)
Location 25.557113° 34.583711°
Runways 1
Magnetic Variation 4.075° E

METAR

HEMA 121400Z 36008KT CAVOK 24/16 Q1017 NOSIG

Decode

TAF

Not found

Destination Runways

ID Width Length Bearing (true) Bearing (mag) Surface Threshold Offset Overrun Length
15 148 ft / 45 m 9,875 ft / 3,010 m 149.89° 145.82° Asphalt 0 ft / 0 m 295 ft / 90 m
33 148 ft / 45 m 9,875 ft / 3,010 m 329.90° 325.83° Asphalt 0 ft / 0 m 295 ft / 90 m